Time;durP1;ratioP1;P1;durP2;ratioP2;P2;SDS_P1;SDS_P2;PMS_P1;PMS_P2;Temp;Humidity;BMP_temperature;BMP_pressure;BME280_temperature;BME280_humidity;BME280_pressure;Samples;Min_cycle;Max_cycle;Signal;HPM_P1;HPM_P2
2022/03/11 00:01:03;;;;;;;9.82;7.28;;;;;;;5.03;80.73;102201.09;6202529;23;20031;-80
2022/03/11 00:03:32;;;;;;;8.70;7.30;;;;;;;4.99;80.85;102195.63;6213863;23;20023;-79
2022/03/11 00:06:01;;;;;;;13.90;7.88;;;;;;;4.97;81.69;102194.66;6215450;23;20024;-79
2022/03/11 00:08:47;;;;;;;10.98;7.53;;;;;;;4.91;82.20;102195.25;6216784;23;20051;-79
2022/03/11 00:11:16;;;;;;;12.25;8.20;;;;;;;4.86;82.11;102188.94;6204664;23;20025;-79
2022/03/11 00:13:44;;;;;;;10.18;7.82;;;;;;;4.82;82.66;102189.59;6207544;23;20017;-79
2022/03/11 00:16:13;;;;;;;11.00;7.75;;;;;;;4.77;82.99;102183.28;6208443;23;20313;-79
2022/03/11 00:18:42;;;;;;;11.65;8.30;;;;;;;4.74;83.42;102188.34;6189944;23;20350;-80
2022/03/11 00:21:12;;;;;;;11.52;8.48;;;;;;;4.71;83.35;102190.78;6153870;23;20359;-79
2022/03/11 00:23:42;;;;;;;12.15;7.88;;;;;;;4.66;83.73;102196.69;6183241;23;20447;-79
2022/03/11 00:26:10;;;;;;;12.63;8.50;;;;;;;4.64;84.45;102187.88;6235670;23;20025;-81
2022/03/11 00:28:39;;;;;;;11.93;8.02;;;;;;;4.62;85.02;102191.25;6229949;23;20255;-82
2022/03/11 00:31:08;;;;;;;12.82;8.77;;;;;;;4.60;84.80;102201.63;6210475;23;20016;-81
2022/03/11 00:33:37;;;;;;;10.32;8.50;;;;;;;4.60;84.66;102204.22;6225539;23;20020;-80
2022/03/11 00:36:05;;;;;;;11.27;9.40;;;;;;;4.57;85.44;102196.22;6204213;23;20025;-79
2022/03/11 00:38:39;;;;;;;11.52;8.65;;;;;;;4.55;85.80;102191.75;6217633;23;20016;-79
2022/03/11 00:41:07;;;;;;;16.08;8.75;;;;;;;4.51;85.40;102192.44;6237959;23;20016;-79
2022/03/11 00:43:36;;;;;;;12.93;10.00;;;;;;;4.50;85.62;102186.34;6181156;23;20020;-79
2022/03/11 00:46:05;;;;;;;14.07;9.52;;;;;;;4.46;85.53;102195.72;6213625;23;20032;-80
2022/03/11 00:48:33;;;;;;;16.27;9.52;;;;;;;4.44;85.97;102193.84;6209060;23;20017;-80
2022/03/11 00:51:02;;;;;;;13.45;10.02;;;;;;;4.41;86.29;102189.38;6230940;23;20020;-80
2022/03/11 00:53:30;;;;;;;15.82;10.02;;;;;;;4.39;86.42;102195.34;6218635;23;20470;-79
2022/03/11 00:55:59;;;;;;;14.30;10.20;;;;;;;4.35;87.21;102191.69;6181926;23;20020;-79
2022/03/11 00:58:27;;;;;;;13.75;9.85;;;;;;;4.34;87.65;102189.00;6207967;23;20341;-78
2022/03/11 01:00:55;;;;;;;13.45;10.35;;;;;;;4.29;87.82;102194.88;6215533;23;20021;-79
2022/03/11 01:03:24;;;;;;;13.85;10.70;;;;;;;4.27;88.71;102185.16;6207863;23;20146;-80
2022/03/11 01:05:53;;;;;;;19.80;11.35;;;;;;;4.26;88.76;102188.59;6214686;23;20019;-79
2022/03/11 01:08:22;;;;;;;16.88;11.38;;;;;;;4.22;88.95;102182.34;6215876;23;20118;-79
2022/03/11 01:10:50;;;;;;;20.35;12.25;;;;;;;4.21;88.69;102177.91;6218086;23;20473;-80
2022/03/11 01:13:19;;;;;;;21.25;10.98;;;;;;;4.19;89.21;102182.16;6201180;23;20668;-80
2022/03/11 01:15:49;;;;;;;19.08;12.32;;;;;;;4.17;90.25;102173.38;6231400;23;20021;-80
2022/03/11 01:18:17;;;;;;;17.20;11.85;;;;;;;4.16;89.84;102175.91;6212687;23;20029;-78
2022/03/11 01:20:46;;;;;;;22.58;11.70;;;;;;;4.14;89.50;102178.44;6213877;23;20028;-78
2022/03/11 01:23:14;;;;;;;17.23;12.43;;;;;;;4.10;90.50;102172.19;6236145;23;20232;-79
2022/03/11 01:25:43;;;;;;;17.17;12.70;;;;;;;4.07;90.65;102165.91;6215533;23;20460;-80
2022/03/11 01:28:13;;;;;;;19.38;13.40;;;;;;;4.05;91.21;102159.72;6224392;23;20712;-79
2022/03/11 01:30:42;;;;;;;25.58;13.32;;;;;;;4.03;90.62;102166.56;6190368;23;20441;-79
2022/03/11 01:33:10;;;;;;;20.33;12.38;;;;;;;4.01;90.83;102163.00;6209132;23;20383;-80
2022/03/11 01:35:39;;;;;;;19.63;13.20;;;;;;;4.00;90.69;102153.38;6208934;23;20023;-79
2022/03/11 01:38:08;;;;;;;18.40;13.18;;;;;;;3.98;90.95;102158.50;6235740;23;20110;-80
2022/03/11 01:40:36;;;;;;;22.13;14.15;;;;;;;3.96;91.37;102154.03;6212116;23;20039;-79
2022/03/11 01:43:16;;;;;;;20.85;12.98;;;;;;;3.95;92.70;102144.41;6203114;23;20323;-81
2022/03/11 01:45:45;;;;;;;19.20;13.95;;;;;;;3.93;91.89;102149.53;6206278;23;20027;-79
2022/03/11 01:48:14;;;;;;;21.38;14.38;;;;;;;3.90;91.51;102142.47;6183794;23;20021;-79
2022/03/11 01:50:42;;;;;;;20.05;14.32;;;;;;;3.89;91.99;102143.28;6210711;23;20676;-80
2022/03/11 01:53:14;;;;;;;22.73;14.55;;;;;;;3.86;92.58;102137.91;6214273;23;20020;-79
2022/03/11 01:55:42;;;;;;;25.20;14.15;;;;;;;3.83;92.08;102132.53;6213349;23;20556;-80
2022/03/11 01:58:11;;;;;;;19.85;14.65;;;;;;;3.80;92.58;102131.47;6205280;23;20036;-81
2022/03/11 02:00:40;;;;;;;22.58;15.52;;;;;;;3.78;92.57;102131.41;6196420;23;20263;-79
2022/03/11 02:03:09;;;;;;;21.95;14.45;;;;;;;3.75;93.54;102138.19;6214477;23;20031;-79
2022/03/11 02:05:38;;;;;;;21.00;14.55;;;;;;;3.69;94.36;102124.00;6175948;23;20402;-79
2022/03/11 02:08:07;;;;;;;25.50;15.10;;;;;;;3.66;93.76;102133.38;6232333;23;20439;-79
2022/03/11 02:10:37;;;;;;;21.77;15.13;;;;;;;3.64;93.59;102135.00;6215425;23;20056;-80
2022/03/11 02:13:06;;;;;;;22.40;15.38;;;;;;;3.61;94.06;102130.53;6217597;23;20447;-78
2022/03/11 02:15:36;;;;;;;21.88;14.98;;;;;;;3.57;94.19;102123.34;6176776;23;20230;-79
2022/03/11 02:18:04;;;;;;;19.38;14.68;;;;;;;3.54;94.24;102118.00;6210373;23;20327;-80
2022/03/11 02:20:33;;;;;;;23.98;15.95;;;;;;;3.48;94.60;102120.31;6215195;23;20138;-78
2022/03/11 02:23:04;;;;;;;22.38;15.85;;;;;;;3.45;94.93;102112.31;6189591;23;20036;-80
2022/03/11 02:25:33;;;;;;;23.95;15.32;;;;;;;3.42;94.95;102113.06;6212533;23;20131;-78
2022/03/11 02:28:02;;;;;;;21.25;15.48;;;;;;;3.38;94.64;102103.25;6205183;23;20358;-79
2022/03/11 02:30:31;;;;;;;27.33;15.43;;;;;;;3.36;95.32;102112.72;6204838;23;20142;-81
2022/03/11 02:33:00;;;;;;;24.17;16.80;;;;;;;3.36;94.41;102104.00;6218513;23;20473;-79
2022/03/11 02:35:31;;;;;;;25.70;16.70;;;;;;;3.33;95.19;102104.75;6237181;23;20343;-80
2022/03/11 02:37:59;;;;;;;26.70;15.25;;;;;;;3.32;94.16;102102.94;6215757;23;20020;-79
2022/03/11 02:40:28;;;;;;;21.95;15.90;;;;;;;3.30;94.96;102108.06;6239484;23;20454;-79
2022/03/11 02:42:56;;;;;;;28.20;16.83;;;;;;;3.27;95.24;102100.09;6216282;23;20020;-79
2022/03/11 02:45:24;;;;;;;22.05;15.75;;;;;;;3.25;95.30;102093.94;6164443;23;20021;-80
2022/03/11 02:47:53;;;;;;;22.95;16.00;;;;;;;3.22;95.06;102088.53;6218789;23;20024;-79
2022/03/11 02:50:21;;;;;;;23.88;16.55;;;;;;;3.20;95.35;102089.28;6199600;23;20024;-79
2022/03/11 02:52:52;;;;;;;;;;;;;;;3.18;98.91;102081.38;6191009;23;20023;-78
2022/03/11 02:55:20;;;;;;;21.10;14.80;;;;;;;3.16;95.95;102083.00;6229703;23;20321;-79
2022/03/11 02:57:49;;;;;;;24.25;15.13;;;;;;;3.13;95.93;102081.13;6216676;23;20324;-78
2022/03/11 03:00:18;;;;;;;23.52;15.98;;;;;;;3.10;96.31;102080.97;6210810;23;20020;-79
2022/03/11 03:02:46;;;;;;;20.33;15.68;;;;;;;3.07;96.93;102070.38;6214592;23;20021;-80
2022/03/11 03:05:15;;;;;;;22.65;15.43;;;;;;;3.06;96.91;102073.81;6239057;23;20032;-79
2022/03/11 03:07:44;;;;;;;21.92;15.85;;;;;;;3.04;96.82;102064.13;6227581;23;20047;-79
2022/03/11 03:10:12;;;;;;;25.48;17.27;;;;;;;3.00;96.50;102063.06;6217152;23;20036;-78
2022/03/11 03:12:43;;;;;;;24.20;15.75;;;;;;;2.97;96.57;102057.69;6228093;23;20242;-79
2022/03/11 03:15:12;;;;;;;23.83;16.27;;;;;;;2.95;97.67;102059.31;6230147;23;20024;-79
2022/03/11 03:17:41;;;;;;;25.75;15.77;;;;;;;2.92;97.35;102059.16;6231439;23;20226;-79
2022/03/11 03:20:10;;;;;;;26.80;16.40;;;;;;;2.91;96.98;102070.38;6218266;23;20021;-80
2022/03/11 03:22:39;;;;;;;24.00;15.68;;;;;;;2.88;97.08;102063.28;6210851;23;20021;-79
2022/03/11 03:25:09;;;;;;;22.83;16.95;;;;;;;2.87;96.68;102058.00;6218194;23;20473;-79
2022/03/11 03:27:37;;;;;;;25.95;17.00;;;;;;;2.84;96.54;102063.94;6212933;23;20028;-79
2022/03/11 03:30:10;;;;;;;23.75;16.65;;;;;;;2.82;97.83;102062.97;6218410;23;20016;-79
2022/03/11 03:32:42;;;;;;;22.05;16.23;;;;;;;2.78;97.85;102057.50;6168592;23;20221;-79
2022/03/11 03:35:11;;;;;;;24.58;16.08;;;;;;;2.75;97.48;102054.75;6215307;23;20350;-80
2022/03/11 03:37:40;;;;;;;23.25;17.30;;;;;;;2.72;97.93;102051.16;6211363;23;20476;-78
2022/03/11 03:40:11;;;;;;;23.25;16.05;;;;;;;2.67;97.95;102052.63;6238353;23;20028;-80
2022/03/11 03:42:46;;;;;;;24.85;16.75;;;;;;;2.66;97.95;102049.94;6212832;23;20016;-79
2022/03/11 03:45:15;;;;;;;22.83;16.58;;;;;;;2.62;98.42;102051.47;6214786;23;20027;-80
2022/03/11 03:47:46;;;;;;;24.17;16.42;;;;;;;2.58;98.43;102052.13;6216246;23;20024;-79
2022/03/11 03:50:15;;;;;;;20.60;15.70;;;;;;;2.56;97.95;102052.84;6191106;23;20020;-78
2022/03/11 03:52:44;;;;;;;23.35;16.92;;;;;;;2.51;97.83;102044.78;6210392;23;20028;-78
2022/03/11 03:55:12;;;;;;;22.58;16.38;;;;;;;2.46;98.16;102047.13;6235467;23;20477;-79
2022/03/11 03:57:41;;;;;;;24.27;17.05;;;;;;;2.44;98.83;102042.63;6228948;22;20036;-79
2022/03/11 04:00:10;;;;;;;25.25;16.75;;;;;;;2.41;97.53;102045.09;6218348;23;20285;-79
2022/03/11 04:02:46;;;;;;;21.83;16.27;;;;;;;2.35;98.39;102043.03;6205510;23;20025;-79
2022/03/11 04:05:17;;;;;;;21.95;16.52;;;;;;;2.32;99.06;102051.53;6191689;23;20031;-79
2022/03/11 04:07:48;;;;;;;24.17;17.35;;;;;;;2.29;98.92;102041.00;6224544;23;20024;-81
2022/03/11 04:10:20;;;;;;;22.88;15.70;;;;;;;2.26;99.19;102043.41;6203141;23;20020;-79
2022/03/11 04:12:49;;;;;;;24.33;16.85;;;;;;;2.24;98.68;102044.16;6188088;23;20028;-79
2022/03/11 04:15:18;;;;;;;24.60;16.60;;;;;;;2.21;98.96;102044.88;6191691;23;20025;-79
2022/03/11 04:17:46;;;;;;;22.80;17.13;;;;;;;2.20;99.10;102043.06;6201896;23;20016;-79
2022/03/11 04:20:15;;;;;;;22.13;15.50;;;;;;;2.18;97.74;102042.09;6208976;23;20017;-78
2022/03/11 04:22:45;;;;;;;21.50;16.02;;;;;;;2.16;97.86;102042.84;6199857;23;20473;-79
2022/03/11 04:25:15;;;;;;;21.35;16.52;;;;;;;2.14;97.98;102037.53;6227082;23;20021;-79
2022/03/11 04:27:43;;;;;;;21.48;15.13;;;;;;;2.12;97.58;102028.75;6238524;23;20020;-79
2022/03/11 04:30:14;;;;;;;;;;;;;;;2.10;100.00;102030.38;6241863;23;20028;-78
2022/03/11 04:32:42;;;;;;;22.85;16.70;;;;;;;2.08;97.91;102021.56;6200339;23;20258;-78
2022/03/11 04:35:14;;;;;;;22.35;15.95;;;;;;;2.08;98.42;102031.97;6181812;23;20016;-79
2022/03/11 04:37:43;;;;;;;22.25;16.20;;;;;;;2.05;97.48;102026.63;6239643;23;20466;-79
2022/03/11 04:40:11;;;;;;;20.95;16.45;;;;;;;2.03;97.44;102029.13;6188412;23;20047;-79
2022/03/11 04:42:40;;;;;;;25.10;16.90;;;;;;;2.01;97.86;102019.44;6175955;23;20560;-80
2022/03/11 04:45:09;;;;;;;22.33;16.20;;;;;;;2.00;98.07;102021.13;6192051;23;20016;-79
2022/03/11 04:47:38;;;;;;;21.83;14.88;;;;;;;2.00;98.22;102017.66;6230366;23;20021;-79
2022/03/11 04:50:07;;;;;;;24.48;15.60;;;;;;;1.98;98.78;102012.34;6206635;23;20017;-78
2022/03/11 04:52:36;;;;;;;20.65;15.57;;;;;;;1.97;97.60;102017.47;6216183;23;20020;-78
2022/03/11 04:55:05;;;;;;;24.45;15.32;;;;;;;1.91;98.88;102008.53;6175357;23;20028;-78
2022/03/11 04:57:34;;;;;;;23.15;15.68;;;;;;;1.91;98.13;102007.59;6238898;22;20028;-79
2022/03/11 05:00:04;;;;;;;25.17;16.33;;;;;;;1.87;98.61;102014.38;6236623;23;20020;-79
2022/03/11 05:02:34;;;;;;;18.58;15.15;;;;;;;1.83;99.79;102009.78;6240959;23;20073;-81
2022/03/11 05:05:07;;;;;;;20.90;15.60;;;;;;;1.80;99.21;102016.53;6223423;23;20039;-79
2022/03/11 05:07:36;;;;;;;19.75;15.35;;;;;;;1.76;100.00;102020.66;6215261;23;20028;-79
2022/03/11 05:10:06;;;;;;;20.73;15.52;;;;;;;1.73;100.00;102013.56;6150768;23;20024;-79
2022/03/11 05:12:35;;;;;;;25.95;16.45;;;;;;;1.70;100.00;102015.06;6214397;23;20021;-79
2022/03/11 05:15:06;;;;;;;22.65;16.42;;;;;;;1.69;100.00;102015.91;6235148;23;20642;-79
2022/03/11 05:17:35;;;;;;;21.40;15.75;;;;;;;1.66;100.00;102018.31;6208005;23;20342;-78
2022/03/11 05:20:05;;;;;;;23.30;15.85;;;;;;;1.62;100.00;102016.34;6204866;23;20245;-79
2022/03/11 05:22:34;;;;;;;24.63;16.60;;;;;;;1.59;99.91;102013.56;6220009;23;20028;-78
2022/03/11 05:25:03;;;;;;;21.35;14.63;;;;;;;1.55;100.00;102013.41;6202839;23;20115;-78
2022/03/11 05:27:31;;;;;;;22.52;16.35;;;;;;;1.52;99.91;102018.41;6242475;23;20450;-79
2022/03/11 05:30:01;;;;;;;21.75;15.90;;;;;;;1.50;100.00;102009.63;6212878;23;20017;-79
2022/03/11 05:32:29;;;;;;;22.42;15.02;;;;;;;1.46;99.95;102019.75;6217984;23;20328;-79
2022/03/11 05:34:58;;;;;;;21.30;15.57;;;;;;;1.45;100.00;102011.03;6238986;23;20036;-78
2022/03/11 05:37:26;;;;;;;20.95;15.30;;;;;;;1.42;99.66;101999.56;6224345;23;20020;-79
2022/03/11 05:39:55;;;;;;;20.55;15.73;;;;;;;1.40;100.00;102011.56;6212155;23;20277;-79
2022/03/11 05:42:24;;;;;;;25.60;16.60;;;;;;;1.38;99.42;102014.13;6218239;23;20020;-79
2022/03/11 05:44:54;;;;;;;23.35;15.52;;;;;;;1.36;100.00;102010.50;6212486;23;20119;-80
2022/03/11 05:47:22;;;;;;;21.40;15.43;;;;;;;1.33;100.00;102018.13;6249462;23;20025;-80
2022/03/11 05:49:51;;;;;;;24.25;16.00;;;;;;;1.31;100.00;102009.34;6183623;23;20024;-80
2022/03/11 05:52:19;;;;;;;20.15;15.75;;;;;;;1.29;100.00;102010.97;6213339;23;20021;-79
2022/03/11 05:54:48;;;;;;;21.40;15.52;;;;;;;1.26;100.00;102015.97;6180307;23;20024;-79
2022/03/11 05:57:17;;;;;;;25.55;15.63;;;;;;;1.23;100.00;102006.31;6216580;22;20039;-79
2022/03/11 05:59:45;;;;;;;22.15;15.57;;;;;;;1.24;100.00;102004.59;6240453;22;20016;-79
2022/03/11 06:02:14;;;;;;;23.20;16.60;;;;;;;1.25;100.00;102006.38;6254375;22;20022;-79
2022/03/11 06:04:43;;;;;;;21.20;14.77;;;;;;;1.22;99.99;102007.09;6244816;22;20031;-79
2022/03/11 06:07:11;;;;;;;24.30;15.90;;;;;;;1.22;99.62;101998.41;6242515;22;20020;-79
2022/03/11 06:09:40;;;;;;;21.70;14.80;;;;;;;1.22;100.00;102006.22;6243336;22;20024;-79
2022/03/11 06:12:09;;;;;;;20.80;14.93;;;;;;;1.21;100.00;102000.13;6236400;22;20259;-79
2022/03/11 06:14:37;;;;;;;22.83;15.25;;;;;;;1.20;100.00;101981.84;6230482;22;20023;-79
2022/03/11 06:17:05;;;;;;;20.63;13.82;;;;;;;1.23;99.34;101993.31;6239600;22;20038;-79
2022/03/11 06:19:34;;;;;;;20.08;15.20;;;;;;;1.24;98.69;102005.47;6279525;22;20011;-81
2022/03/11 06:22:06;;;;;;;22.83;16.27;;;;;;;1.25;98.59;101990.78;6252932;22;20015;-79
2022/03/11 06:24:37;;;;;;;20.90;14.10;;;;;;;1.25;98.98;101993.38;6242485;22;20024;-78
2022/03/11 06:27:05;;;;;;;22.05;15.48;;;;;;;1.27;98.21;102000.47;6225543;22;20016;-79
2022/03/11 06:29:34;;;;;;;21.58;14.88;;;;;;;1.28;99.09;102001.38;6224251;22;20353;-79
2022/03/11 06:32:05;;;;;;;20.02;15.50;;;;;;;1.29;98.77;102001.47;6233513;22;20016;-78
2022/03/11 06:34:35;;;;;;;25.83;15.65;;;;;;;1.31;97.66;101996.38;6266922;22;20011;-78
2022/03/11 06:37:03;;;;;;;20.00;14.23;;;;;;;1.30;98.15;101999.75;6238440;22;20070;-78
2022/03/11 06:39:32;;;;;;;24.17;15.73;;;;;;;1.31;97.43;101994.66;6259415;22;20023;-79
2022/03/11 06:42:01;;;;;;;21.27;14.55;;;;;;;1.32;98.57;101995.53;6251097;22;20020;-79
2022/03/11 06:44:31;;;;;;;;;;;;;;;1.32;99.41;101987.75;6246728;22;20016;-79
2022/03/11 06:47:05;;;;;;;24.55;15.55;;;;;;;1.35;98.07;101990.53;6273542;22;19922;-80
2022/03/11 06:49:34;;;;;;;20.90;14.43;;;;;;;1.39;97.78;101987.31;6235338;22;20020;-79
2022/03/11 06:52:03;;;;;;;18.98;14.57;;;;;;;1.47;97.48;101986.06;6267242;22;20026;-78
2022/03/11 06:54:31;;;;;;;25.35;17.40;;;;;;;1.65;97.30;101977.56;6226674;22;20023;-79
2022/03/11 06:57:00;;;;;;;20.95;14.07;;;;;;;1.88;96.76;101976.25;6279003;22;20008;-78
2022/03/11 06:59:28;;;;;;;20.65;13.18;;;;;;;2.17;95.71;101988.28;6187789;22;20019;-79
2022/03/11 07:01:57;;;;;;;21.60;14.88;;;;;;;2.57;95.10;101986.97;6207706;22;20024;-80
2022/03/11 07:04:32;;;;;;;20.23;14.30;;;;;;;3.16;93.04;101970.09;6272906;22;20023;-79
2022/03/11 07:07:00;;;;;;;19.13;14.45;;;;;;;3.71;92.34;101971.16;6272364;22;20023;-80
2022/03/11 07:09:29;;;;;;;24.00;15.35;;;;;;;4.35;91.45;101966.31;6231894;22;20026;-80
2022/03/11 07:12:00;;;;;;;21.63;14.52;;;;;;;4.91;88.05;101964.50;6224451;22;20034;-79
2022/03/11 07:14:38;;;;;;;19.25;13.65;;;;;;;5.18;83.36;101960.50;6243314;22;20020;-79
2022/03/11 07:17:09;;;;;;;19.95;14.80;;;;;;;5.03;84.29;101968.56;6260017;22;20389;-78
2022/03/11 07:19:39;;;;;;;20.27;13.75;;;;;;;4.66;84.80;101972.13;6242676;22;20034;-78
2022/03/11 07:22:07;;;;;;;16.13;12.95;;;;;;;4.39;85.66;101965.66;6239831;22;20023;-78
2022/03/11 07:24:36;;;;;;;17.02;13.07;;;;;;;4.17;86.81;101962.03;6218712;22;20027;-78
2022/03/11 07:27:05;;;;;;;18.80;13.88;;;;;;;4.03;88.56;101965.72;6233548;22;20007;-79
2022/03/11 07:29:34;;;;;;;18.05;13.88;;;;;;;3.90;89.37;101962.53;6275877;22;20027;-80
2022/03/11 07:32:04;;;;;;;19.45;15.27;;;;;;;3.89;91.15;101965.03;6245279;22;20343;-79
2022/03/11 07:34:33;;;;;;;18.02;13.85;;;;;;;3.99;91.56;101959.47;6253654;22;20023;-79
2022/03/11 07:37:01;;;;;;;23.42;14.90;;;;;;;4.30;92.38;101964.41;6240237;22;20019;-79
2022/03/11 07:39:30;;;;;;;19.60;13.98;;;;;;;4.81;92.63;101958.00;6244935;22;20461;-80
2022/03/11 07:41:58;;;;;;;19.55;14.45;;;;;;;5.30;90.09;101949.66;6260314;22;20024;-79
2022/03/11 07:44:27;;;;;;;18.45;13.35;;;;;;;5.68;88.00;101946.88;6247591;22;20457;-80
2022/03/11 07:46:58;;;;;;;20.38;12.82;;;;;;;6.07;88.16;101952.84;6248966;22;20024;-79
2022/03/11 07:49:30;;;;;;;14.80;12.98;;;;;;;6.30;84.63;101948.47;6252724;22;20016;-80
2022/03/11 07:51:58;;;;;;;19.40;13.70;;;;;;;6.59;83.94;101946.06;6241648;22;20023;-79
2022/03/11 07:54:28;;;;;;;17.63;12.68;;;;;;;6.76;82.14;101941.44;6240676;22;20016;-80
2022/03/11 07:56:58;;;;;;;18.08;13.75;;;;;;;6.91;80.19;101946.34;6233175;22;20477;-80
2022/03/11 07:59:31;;;;;;;18.75;12.02;;;;;;;7.11;80.33;101944.44;6237597;22;20453;-80
2022/03/11 08:02:00;;;;;;;17.60;12.95;;;;;;;7.26;76.90;101937.09;6206732;22;20031;-79
2022/03/11 08:04:34;;;;;;;16.15;12.77;;;;;;;7.30;78.07;101940.72;6205260;22;20024;-80
2022/03/11 08:07:06;;;;;;;16.35;13.23;;;;;;;7.35;76.48;101941.75;6241232;22;20232;-81
2022/03/11 08:09:36;;;;;;;17.30;13.30;;;;;;;7.54;77.17;101935.38;6230231;22;20012;-80
2022/03/11 08:12:08;;;;;;;19.30;13.30;;;;;;;7.74;76.49;101931.69;6208571;22;20237;-80
2022/03/11 08:14:40;;;;;;;16.17;12.60;;;;;;;7.81;74.73;101917.03;6235925;22;20020;-80
2022/03/11 08:17:12;;;;;;;15.95;13.02;;;;;;;7.94;76.45;101918.28;6207130;22;20015;-79
2022/03/11 08:19:41;;;;;;;16.85;13.55;;;;;;;8.09;73.60;101923.13;6248086;22;20242;-80
2022/03/11 08:22:11;;;;;;;21.27;13.55;;;;;;;8.15;72.87;101936.47;6263638;22;20020;-81
2022/03/11 08:24:40;;;;;;;;;;;;;;;8.08;62.36;101927.50;6250010;22;20224;-79
2022/03/11 08:27:11;;;;;;;19.35;12.52;;;;;;;8.15;72.29;101923.34;6204689;22;20234;-81
2022/03/11 08:29:39;;;;;;;18.73;13.50;;;;;;;8.22;71.14;101925.28;6220517;22;20543;-81
2022/03/11 08:32:09;;;;;;;22.88;13.02;;;;;;;8.25;70.20;101932.38;6189151;22;20026;-79
2022/03/11 08:34:37;;;;;;;17.73;13.25;;;;;;;8.10;69.10;101917.94;6261769;22;20019;-81
2022/03/11 08:37:24;;;;;;;20.00;12.75;;;;;;;8.03;68.57;101923.81;6210045;22;20075;-80
2022/03/11 08:39:53;;;;;;;15.93;13.73;;;;;;;8.03;68.02;101900.22;6239677;22;20441;-81
2022/03/11 08:42:22;;;;;;;20.70;13.02;;;;;;;7.94;67.38;101913.97;6231653;22;20074;-80
2022/03/11 08:44:53;;;;;;;18.73;12.60;;;;;;;7.87;66.62;101908.47;6204534;22;20349;-80
2022/03/11 08:47:21;;;;;;;17.05;12.90;;;;;;;7.86;66.79;101909.31;6184924;22;20016;-80
2022/03/11 08:49:50;;;;;;;16.50;13.25;;;;;;;7.85;66.52;101910.16;6188365;22;20031;-81
2022/03/11 08:52:19;;;;;;;18.98;13.40;;;;;;;7.91;66.15;101918.22;6259721;22;20028;-81
2022/03/11 08:54:48;;;;;;;16.48;12.73;;;;;;;7.94;65.06;101899.91;6265493;22;20020;-80
2022/03/11 08:57:16;;;;;;;19.25;13.35;;;;;;;7.99;64.67;101901.84;6242334;22;20018;-81
2022/03/11 08:59:45;;;;;;;18.50;14.45;;;;;;;7.99;64.50;101904.47;6277595;22;20023;-81
2022/03/11 09:02:15;;;;;;;16.58;13.27;;;;;;;8.03;64.31;101902.81;6233370;22;20026;-80
2022/03/11 09:04:48;;;;;;;17.40;13.60;;;;;;;8.04;63.81;101899.38;6187206;22;20023;-81
2022/03/11 09:07:17;;;;;;;17.88;14.18;;;;;;;8.00;62.29;101893.13;6238842;22;20016;-81
2022/03/11 09:09:46;;;;;;;20.33;14.35;;;;;;;7.89;62.06;101896.28;6185795;22;20047;-80
2022/03/11 09:12:15;;;;;;;17.80;14.03;;;;;;;7.91;62.98;101886.72;6206449;22;20027;-81
2022/03/11 09:14:44;;;;;;;18.98;13.23;;;;;;;8.01;62.79;101888.78;6212081;22;20326;-81
2022/03/11 09:17:13;;;;;;;18.75;13.45;;;;;;;8.06;61.23;101887.19;6244420;22;20020;-80
2022/03/11 09:19:43;;;;;;;15.48;12.13;;;;;;;7.99;60.54;101874.72;6275796;22;20236;-80
2022/03/11 09:22:35;;;;;;;18.10;13.13;;;;;;;7.74;59.77;101876.59;6231635;22;20226;-80
2022/03/11 09:25:07;;;;;;;21.05;13.68;;;;;;;7.70;60.03;101866.84;6269995;22;20330;-80
2022/03/11 09:27:36;;;;;;;22.90;13.05;;;;;;;7.68;60.63;101873.78;6242024;22;20591;-81
2022/03/11 09:30:08;;;;;;;21.48;13.45;;;;;;;7.58;60.30;101859.47;6242510;22;20030;-82
2022/03/11 09:32:38;;;;;;;23.20;14.45;;;;;;;7.56;60.99;101868.13;6237350;22;20019;-81
2022/03/11 09:35:10;;;;;;;18.75;13.15;;;;;;;7.55;60.78;101866.38;6218777;22;20023;-81
2022/03/11 09:37:39;;;;;;;25.75;14.32;;;;;;;7.56;60.74;101868.13;6273209;22;20019;-79
2022/03/11 09:40:12;;;;;;;19.70;13.05;;;;;;;7.58;61.23;101861.19;6272345;22;20027;-81
2022/03/11 09:42:41;;;;;;;17.50;13.23;;;;;;;7.62;60.29;101857.84;6274122;22;20023;-81
2022/03/11 09:45:11;;;;;;;19.88;13.85;;;;;;;7.61;60.69;101851.69;6212531;22;20016;-80
2022/03/11 09:47:42;;;;;;;19.65;13.65;;;;;;;7.66;60.77;101853.59;6241980;22;20030;-81
2022/03/11 09:50:11;;;;;;;19.90;13.48;;;;;;;7.63;59.09;101837.75;6273120;22;20445;-82
2022/03/11 09:52:42;;;;;;;18.17;13.85;;;;;;;7.64;59.71;101839.50;6237075;22;20500;-80
2022/03/11 09:55:10;;;;;;;;;;;;;;;7.53;58.27;101826.97;6246369;22;20015;-81
2022/03/11 09:57:39;;;;;;;17.70;13.20;;;;;;;7.52;57.53;101821.66;6217325;22;19938;-81
2022/03/11 10:00:10;;;;;;;17.65;12.63;;;;;;;7.48;57.54;101809.31;6266543;22;20020;-81
2022/03/11 10:02:45;;;;;;;18.65;13.35;;;;;;;7.48;57.20;101804.94;6273131;22;20023;-81
2022/03/11 10:05:15;;;;;;;17.45;12.75;;;;;;;7.45;57.58;101798.69;6273533;22;20035;-81
2022/03/11 10:08:13;;;;;;;22.10;13.00;;;;;;;7.43;57.47;101803.94;6242499;22;20469;-82
2022/03/11 10:10:44;;;;;;;23.40;12.40;;;;;;;7.44;57.35;101796.94;6247423;22;20392;-81
2022/03/11 10:13:13;;;;;;;22.65;11.65;;;;;;;7.46;57.18;101787.38;6265989;22;20043;-80
2022/03/11 10:15:44;;;;;;;19.27;12.82;;;;;;;7.55;56.92;101792.91;6263514;22;20016;-81
2022/03/11 10:18:16;;;;;;;18.13;12.27;;;;;;;7.56;57.00;101782.47;6220760;22;20016;-81
2022/03/11 10:20:44;;;;;;;17.30;12.88;;;;;;;7.64;56.97;101787.97;6229154;22;20020;-82
2022/03/11 10:23:15;;;;;;;16.92;12.32;;;;;;;7.64;56.81;101777.47;6248407;22;20475;-81
2022/03/11 10:25:51;;;;;;;19.00;12.57;;;;;;;7.72;55.68;101785.56;6222985;22;20019;-82
2022/03/11 10:28:20;;;;;;;18.63;12.27;;;;;;;7.73;56.47;101788.25;6237671;22;20019;-82
2022/03/11 10:30:49;;;;;;;19.20;12.80;;;;;;;7.82;57.11;101784.97;6234819;22;20023;-82
2022/03/11 10:33:21;;;;;;;16.65;11.77;;;;;;;7.87;56.20;101791.25;6246264;22;20358;-81
2022/03/11 10:35:49;;;;;;;17.45;12.18;;;;;;;7.93;56.04;101796.69;6227965;22;20019;-81
2022/03/11 10:38:20;;;;;;;15.07;12.13;;;;;;;8.00;56.32;101782.91;6238469;22;20019;-81
2022/03/11 10:40:51;;;;;;;17.88;11.65;;;;;;;8.02;54.91;101785.56;6268023;22;20012;-81
2022/03/11 10:43:25;;;;;;;15.23;11.10;;;;;;;8.05;54.93;101788.25;6270576;22;20027;-81
2022/03/11 10:46:09;;;;;;;17.40;11.30;;;;;;;8.05;54.61;101775.13;6270258;22;20027;-81
2022/03/11 10:48:44;;;;;;;15.88;10.95;;;;;;;8.10;54.82;101789.28;6233675;22;20626;-80
2022/03/11 10:51:28;;;;;;;14.93;10.50;;;;;;;8.09;53.64;101771.78;6270663;22;20019;-81
2022/03/11 10:53:59;;;;;;;16.20;11.05;;;;;;;8.09;54.67;101777.03;6238499;22;20349;-82
2022/03/11 10:56:39;;;;;;;17.15;11.55;;;;;;;8.09;53.95;101789.25;6277607;22;20362;-80
2022/03/11 10:59:22;;;;;;;17.35;11.18;;;;;;;8.13;54.02;101776.25;6238232;22;20017;-81
2022/03/11 11:01:52;;;;;;;15.43;11.32;;;;;;;8.22;55.04;101772.97;6222442;23;20131;-80
2022/03/11 11:04:21;;;;;;;12.55;10.13;;;;;;;8.35;54.28;101782.09;6225286;23;20359;-82
2022/03/11 11:06:50;;;;;;;16.38;10.43;;;;;;;8.38;53.61;101769.94;6207207;23;20020;-80
2022/03/11 11:09:22;;;;;;;14.82;11.13;;;;;;;8.44;53.54;101764.00;6201363;23;20510;-81
2022/03/11 11:11:52;;;;;;;19.02;10.60;;;;;;;8.55;54.22;101773.03;6248239;23;20024;-80
2022/03/11 11:14:22;;;;;;;13.90;9.55;;;;;;;8.64;53.37;101771.50;6205369;23;20020;-80
2022/03/11 11:16:55;;;;;;;19.50;10.45;;;;;;;8.74;53.10;101768.28;6181553;23;20020;-80
2022/03/11 11:19:25;;;;;;;19.08;9.73;;;;;;;8.72;52.58;101760.34;6204507;23;20012;-80
2022/03/11 11:21:55;;;;;;;13.80;10.07;;;;;;;8.67;52.59;101769.84;6189517;23;20350;-80
2022/03/11 11:24:25;;;;;;;14.18;9.88;;;;;;;8.64;51.78;101750.47;6185022;23;20255;-80
2022/03/11 11:26:56;;;;;;;12.10;9.70;;;;;;;8.66;51.44;101754.03;6231959;23;20021;-79
2022/03/11 11:29:27;;;;;;;14.10;9.65;;;;;;;8.68;51.53;101742.72;6172088;23;20210;-79
2022/03/11 11:31:57;;;;;;;14.20;10.98;;;;;;;8.66;51.37;101731.28;6187416;23;20477;-79